Time;durP1;ratioP1;P1;durP2;ratioP2;P2;SDS_P1;SDS_P2;PMS_P1;PMS_P2;Temp;Humidity;BMP_temperature;BMP_pressure;BME280_temperature;BME280_humidity;BME280_pressure;Samples;Min_cycle;Max_cycle;Signal;HPM_P1;HPM_P2
2021/04/12 00:02:03;;;;;;;4.82;3.30;;;5.40;48.40;;;;;;5011269;28;20030;-80
2021/04/12 00:04:46;;;;;;;3.17;2.85;;;5.40;48.40;;;;;;4978785;28;20083;-82
2021/04/12 00:07:56;;;;;;;3.67;3.33;;;5.40;48.50;;;;;;5012370;28;20033;-83
2021/04/12 00:10:42;;;;;;;3.38;2.97;;;5.30;48.40;;;;;;4995857;28;20057;-79
2021/04/12 00:13:35;;;;;;;3.83;3.33;;;5.30;48.40;;;;;;5028307;28;20355;-77
2021/04/12 00:16:07;;;;;;;3.30;3.00;;;5.30;48.50;;;;;;5011779;28;20033;-79
2021/04/12 00:18:55;;;;;;;3.45;2.95;;;5.20;48.30;;;;;;5011233;28;20080;-76
2021/04/12 00:21:40;;;;;;;3.67;3.05;;;5.30;48.50;;;;;;5027644;28;20041;-77
2021/04/12 00:24:44;;;;;;;3.20;2.90;;;5.30;48.60;;;;;;4994816;28;20083;-77
2021/04/12 00:27:29;;;;;;;4.05;3.22;;;5.20;48.50;;;;;;5011506;28;20084;-81
2021/04/12 00:30:19;;;;;;;4.28;3.53;;;5.20;48.50;;;;;;4994523;28;20512;-79
2021/04/12 00:33:08;;;;;;;3.92;2.85;;;5.10;48.30;;;;;;4993630;28;20038;-77
2021/04/12 00:36:09;;;;;;;3.33;3.03;;;5.20;48.50;;;;;;5007748;28;20041;-77
2021/04/12 00:38:57;;;;;;;2.95;2.58;;;5.20;48.50;;;;;;5007363;28;20041;-78
2021/04/12 00:42:14;;;;;;;4.05;2.88;;;5.10;48.40;;;;;;4992747;28;20033;-77
2021/04/12 00:44:49;;;;;;;3.85;2.97;;;5.10;48.40;;;;;;5010330;28;20122;-77
2021/04/12 00:47:48;;;;;;;6.15;3.00;;;5.10;48.40;;;;;;5010809;28;20069;-77
2021/04/12 00:50:40;;;;;;;6.15;2.92;;;5.10;48.50;;;;;;4994145;28;20056;-77
2021/04/12 00:53:37;;;;;;;5.43;2.80;;;5.10;48.60;;;;;;5010804;28;20045;-77
2021/04/12 00:56:16;;;;;;;2.97;2.67;;;5.10;48.60;;;;;;4994171;28;20026;-77
2021/04/12 00:59:06;;;;;;;2.53;2.33;;;5.00;48.40;;;;;;5010129;28;20087;-76
2021/04/12 01:01:54;;;;;;;3.08;2.78;;;5.10;48.70;;;;;;4994237;28;20037;-78
2021/04/12 01:04:29;;;;;;;3.42;2.75;;;5.10;48.70;;;;;;5009925;28;20037;-79
2021/04/12 01:07:24;;;;;;;3.00;2.70;;;5.10;48.70;;;;;;4994816;28;20029;-78
2021/04/12 01:10:01;;;;;;;3.00;2.53;;;5.10;48.80;;;;;;4993842;28;20042;-78
2021/04/12 01:13:16;;;;;;;3.50;2.80;;;5.10;48.70;;;;;;5008618;28;20033;-77
2021/04/12 01:16:06;;;;;;;2.83;2.03;;;5.10;48.70;;;;;;4985442;28;20117;-77
2021/04/12 01:18:48;;;;;;;2.80;2.53;;;5.10;48.60;;;;;;5009382;28;20120;-78
2021/04/12 01:21:36;;;;;;;2.78;2.47;;;5.10;48.70;;;;;;5007880;28;20049;-78
2021/04/12 01:24:29;;;;;;;2.72;2.53;;;5.10;48.70;;;;;;5010061;28;20036;-77
2021/04/12 01:27:21;;;;;;;3.83;3.03;;;5.10;48.70;;;;;;5009558;28;20503;-82
2021/04/12 01:30:11;;;;;;;3.17;2.88;;;5.20;48.90;;;;;;5009788;28;20561;-78
2021/04/12 01:33:12;;;;;;;3.15;2.65;;;5.20;49.00;;;;;;4977813;28;20068;-77
2021/04/12 01:35:54;;;;;;;2.55;2.10;;;5.20;49.00;;;;;;4977203;28;20037;-77
2021/04/12 01:38:28;;;;;;;2.85;2.38;;;5.20;48.90;;;;;;4992534;28;20038;-80
2021/04/12 01:41:25;;;;;;;2.60;2.40;;;5.20;48.90;;;;;;4990455;28;20116;-77
2021/04/12 01:44:20;;;;;;;3.55;2.47;;;5.20;49.00;;;;;;4991447;28;20030;-79
2021/04/12 01:47:13;;;;;;;2.90;2.60;;;5.20;49.00;;;;;;5005063;28;20040;-80
2021/04/12 01:50:00;;;;;;;3.10;2.33;;;5.20;49.00;;;;;;5000143;28;20083;-80
2021/04/12 01:53:00;;;;;;;2.72;2.50;;;5.20;49.00;;;;;;5010276;28;20033;-79
2021/04/12 01:56:03;;;;;;;2.40;2.20;;;5.20;49.00;;;;;;5012204;28;20030;-80
2021/04/12 01:59:06;;;;;;;2.35;2.00;;;5.20;49.00;;;;;;5011715;28;20032;-80
2021/04/12 02:01:51;;;;;;;3.85;2.17;;;5.20;49.00;;;;;;4994522;28;20034;-77
2021/04/12 02:04:43;;;;;;;3.37;2.03;;;5.20;49.00;;;;;;4994443;28;20362;-78
2021/04/12 02:07:28;;;;;;;3.55;2.28;;;5.20;49.00;;;;;;4992532;28;20038;-78
2021/04/12 02:10:12;;;;;;;;;;;5.20;49.00;;;;;;4994700;28;20088;-79
2021/04/12 02:13:02;;;;;;;2.88;2.20;;;5.20;49.40;;;;;;5011494;28;20058;-78
2021/04/12 02:16:09;;;;;;;2.60;2.17;;;5.30;48.90;;;;;;5010641;28;20050;-80
2021/04/12 02:18:48;;;;;;;3.88;2.13;;;5.30;49.00;;;;;;4994147;28;20031;-79
2021/04/12 02:21:22;;;;;;;2.53;2.30;;;5.30;49.00;;;;;;4993913;28;20122;-80
2021/04/12 02:24:01;;;;;;;2.53;2.17;;;5.30;49.00;;;;;;4993554;28;20049;-79
2021/04/12 02:27:06;;;;;;;2.40;2.20;;;5.30;49.10;;;;;;5010038;28;20412;-80
2021/04/12 02:29:40;;;;;;;3.28;2.40;;;5.30;49.20;;;;;;4991923;28;20420;-79
2021/04/12 02:32:39;;;;;;;2.42;2.22;;;5.20;48.90;;;;;;5010445;28;20034;-79
2021/04/12 02:35:29;;;;;;;2.35;2.15;;;5.30;49.20;;;;;;5010240;28;20030;-77
2021/04/12 02:38:04;;;;;;;2.42;2.22;;;5.30;49.10;;;;;;5011606;28;20117;-79
2021/04/12 02:40:36;;;;;;;2.47;2.20;;;5.30;49.10;;;;;;4993349;28;20649;-78
2021/04/12 02:43:17;;;;;;;2.60;2.35;;;5.30;49.10;;;;;;5010543;28;20117;-79
2021/04/12 02:45:58;;;;;;;3.13;2.05;;;5.30;49.20;;;;;;4974078;28;20042;-76
2021/04/12 02:48:34;;;;;;;2.33;2.13;;;5.30;49.20;;;;;;5008935;28;20038;-76
2021/04/12 02:51:06;;;;;;;3.15;2.08;;;5.30;49.20;;;;;;5010272;28;20030;-76
2021/04/12 02:53:44;;;;;;;3.35;2.00;;;5.30;49.20;;;;;;5009786;28;20057;-79
2021/04/12 02:56:48;;;;;;;2.22;2.03;;;5.40;49.40;;;;;;4993650;28;20038;-79
2021/04/12 02:59:32;;;;;;;2.95;2.25;;;5.30;49.20;;;;;;5011311;28;20397;-79
2021/04/12 03:02:29;;;;;;;5.47;2.45;;;5.30;49.20;;;;;;5010212;28;20110;-79
2021/04/12 03:05:39;;;;;;;4.78;2.10;;;5.30;49.20;;;;;;5009926;28;20038;-79
2021/04/12 03:08:14;;;;;;;1.80;1.70;;;5.30;49.20;;;;;;4993686;28;20104;-79
2021/04/12 03:10:47;;;;;;;1.95;1.80;;;5.30;49.20;;;;;;5008864;28;20073;-79
2021/04/12 03:14:03;;;;;;;2.40;2.17;;;5.30;49.20;;;;;;5009834;28;20102;-79
2021/04/12 03:16:58;;;;;;;2.60;2.10;;;5.30;49.30;;;;;;4971705;28;20100;-76
2021/04/12 03:19:44;;;;;;;4.13;1.98;;;5.30;49.20;;;;;;5011313;28;20374;-78
2021/04/12 03:22:26;;;;;;;2.22;2.00;;;5.30;49.20;;;;;;5009772;28;20033;-80
2021/04/12 03:25:13;;;;;;;2.83;2.20;;;5.30;49.30;;;;;;4993421;28;20030;-76
2021/04/12 03:27:51;;;;;;;3.15;2.50;;;5.30;49.30;;;;;;4993640;28;20061;-78
2021/04/12 03:30:23;;;;;;;2.75;2.30;;;5.30;49.30;;;;;;4993887;28;20469;-78
2021/04/12 03:32:55;;;;;;;3.35;2.40;;;5.30;49.30;;;;;;5009304;28;20478;-78
2021/04/12 03:35:31;;;;;;;2.40;2.20;;;5.30;49.40;;;;;;5009850;28;20405;-75
2021/04/12 03:38:45;;;;;;;2.95;2.45;;;5.30;49.50;;;;;;5014324;28;20049;-77
2021/04/12 03:41:13;;;;;;;2.33;2.13;;;5.30;49.50;;;;;;4955819;28;20042;-77
2021/04/12 03:43:57;;;;;;;3.35;2.33;;;5.30;49.40;;;;;;4992870;28;20096;-78
2021/04/12 03:46:55;;;;;;;3.47;2.10;;;5.30;49.50;;;;;;5013229;28;20042;-77
2021/04/12 03:49:27;;;;;;;2.42;2.22;;;5.30;49.50;;;;;;4994846;28;20077;-80
2021/04/12 03:52:18;;;;;;;3.40;2.53;;;5.30;49.40;;;;;;4996906;28;20030;-81
2021/04/12 03:55:06;;;;;;;4.10;2.30;;;5.30;49.50;;;;;;5013307;28;20068;-81
2021/04/12 03:57:54;;;;;;;3.00;2.08;;;5.30;49.50;;;;;;4985505;28;20482;-81
2021/04/12 04:00:26;;;;;;;3.55;2.30;;;5.30;49.50;;;;;;5011328;28;20128;-77
2021/04/12 04:03:11;;;;;;;2.72;2.00;;;5.30;49.50;;;;;;4996589;28;20038;-78
2021/04/12 04:06:08;;;;;;;2.88;2.20;;;5.30;49.60;;;;;;5012918;28;20032;-77
2021/04/12 04:08:53;;;;;;;2.47;2.00;;;5.30;49.60;;;;;;4996062;28;20049;-76
2021/04/12 04:11:25;;;;;;;2.55;2.17;;;5.30;49.50;;;;;;4996094;28;20054;-79
2021/04/12 04:14:15;;;;;;;2.97;2.28;;;5.30;49.50;;;;;;4996360;28;20065;-77
2021/04/12 04:17:32;;;;;;;3.05;2.20;;;5.30;49.60;;;;;;4995902;28;20481;-77
2021/04/12 04:20:34;;;;;;;2.30;2.10;;;5.30;49.60;;;;;;4979352;28;20034;-77
2021/04/12 04:23:09;;;;;;;2.58;2.35;;;5.30;49.60;;;;;;5012563;28;20033;-79
2021/04/12 04:26:39;;;;;;;2.35;2.17;;;5.30;49.50;;;;;;4996393;28;20033;-77
2021/04/12 04:29:26;;;;;;;3.63;2.28;;;5.30;49.60;;;;;;4931607;28;20045;-79
2021/04/12 04:32:24;;;;;;;2.63;2.25;;;5.30;49.60;;;;;;4996500;28;20033;-76
2021/04/12 04:35:08;;;;;;;2.95;2.65;;;5.30;49.60;;;;;;4995988;28;20472;-80
2021/04/12 04:38:20;;;;;;;3.70;2.47;;;5.30;49.50;;;;;;4996093;28;20056;-77
2021/04/12 04:41:05;;;;;;;5.05;2.47;;;5.30;49.60;;;;;;5011554;28;20034;-78
2021/04/12 04:44:06;;;;;;;2.75;2.53;;;5.30;49.50;;;;;;4995925;28;20037;-77
2021/04/12 04:46:37;;;;;;;3.25;2.05;;;5.30;49.50;;;;;;4995482;28;20429;-78
2021/04/12 04:49:24;;;;;;;3.67;2.40;;;5.30;49.50;;;;;;5002951;28;20026;-78
2021/04/12 04:52:19;;;;;;;2.97;2.15;;;5.40;49.80;;;;;;4976074;28;20117;-76
2021/04/12 04:55:22;;;;;;;3.55;2.58;;;5.40;49.80;;;;;;5021573;28;20088;-78
2021/04/12 04:58:17;;;;;;;2.50;2.05;;;5.40;49.70;;;;;;4995787;28;20029;-78
2021/04/12 05:01:08;;;;;;;3.00;2.05;;;5.40;49.70;;;;;;5029203;28;20037;-77
2021/04/12 05:04:08;;;;;;;3.25;2.35;;;5.40;49.70;;;;;;4991851;28;20029;-77
2021/04/12 05:06:56;;;;;;;2.25;2.05;;;5.40;49.70;;;;;;4990443;28;20038;-78
2021/04/12 05:10:00;;;;;;;2.20;2.00;;;5.40;49.70;;;;;;5019660;28;20434;-78
2021/04/12 05:12:38;;;;;;;3.90;2.30;;;5.40;49.70;;;;;;4993693;28;20038;-79
2021/04/12 05:15:48;;;;;;;3.05;2.20;;;5.40;49.60;;;;;;5010115;28;20037;-79
2021/04/12 05:18:37;;;;;;;2.53;2.10;;;5.40;49.60;;;;;;5009978;28;20061;-77
2021/04/12 05:21:38;;;;;;;2.70;2.42;;;5.40;49.60;;;;;;5010264;28;20118;-78
2021/04/12 05:24:38;;;;;;;2.10;1.95;;;5.50;49.80;;;;;;5027598;28;20040;-78
2021/04/12 05:27:37;;;;;;;4.22;2.45;;;5.50;49.80;;;;;;5027539;28;20116;-77
2021/04/12 05:30:38;;;;;;;2.50;2.00;;;5.50;49.80;;;;;;5027378;28;20089;-78
2021/04/12 05:33:14;;;;;;;2.30;2.10;;;5.50;49.80;;;;;;5003778;28;20041;-79
2021/04/12 05:36:07;;;;;;;2.53;2.28;;;5.60;49.90;;;;;;5026563;28;20033;-76
2021/04/12 05:39:02;;;;;;;2.67;1.70;;;5.60;49.90;;;;;;5009517;28;20041;-76
2021/04/12 05:41:53;;;;;;;2.33;1.80;;;5.60;49.90;;;;;;5026927;28;20026;-79
2021/04/12 05:44:44;;;;;;;2.35;1.85;;;5.60;49.80;;;;;;5010282;28;20064;-77
2021/04/12 05:47:51;;;;;;;2.00;1.80;;;5.70;50.00;;;;;;5026134;28;20456;-82
2021/04/12 05:50:40;;;;;;;2.58;2.10;;;5.80;50.20;;;;;;4993325;28;20030;-78
2021/04/12 05:53:29;;;;;;;2.60;1.88;;;5.80;50.10;;;;;;5009392;28;20558;-77
2021/04/12 05:56:01;;;;;;;3.65;2.00;;;5.80;50.40;;;;;;5009519;28;20479;-78
2021/04/12 05:58:58;;;;;;;3.28;1.80;;;5.90;50.70;;;;;;5026338;28;20099;-80
2021/04/12 06:01:27;;;;;;;4.40;2.00;;;6.00;51.10;;;;;;5026411;28;20060;-77
2021/04/12 06:03:53;;;;;;;4.38;2.10;;;6.10;51.30;;;;;;5025609;28;20030;-78
2021/04/12 06:06:30;;;;;;;2.20;1.95;;;6.10;51.40;;;;;;5026582;28;20033;-77
2021/04/12 06:09:30;;;;;;;3.17;1.90;;;6.20;51.80;;;;;;5008984;28;20041;-76
2021/04/12 06:12:12;;;;;;;2.00;1.90;;;6.30;52.20;;;;;;4998745;28;20079;-77
2021/04/12 06:15:09;;;;;;;2.72;1.85;;;6.40;52.50;;;;;;5038489;28;20037;-77
2021/04/12 06:17:55;;;;;;;8.15;2.00;;;6.50;52.80;;;;;;5039340;28;20025;-80
2021/04/12 06:20:40;;;;;;;1.65;1.45;;;6.60;53.10;;;;;;5009018;28;20029;-76
2021/04/12 06:23:21;;;;;;;4.63;1.83;;;6.70;53.50;;;;;;5008851;28;20044;-77
2021/04/12 06:26:06;;;;;;;2.03;1.73;;;6.80;53.70;;;;;;5009434;28;20384;-78
2021/04/12 06:28:38;;;;;;;2.15;1.95;;;6.90;53.70;;;;;;4998509;28;20042;-77
2021/04/12 06:31:22;;;;;;;2.10;1.80;;;6.90;53.70;;;;;;4992325;28;20034;-77
2021/04/12 06:34:06;;;;;;;3.53;1.75;;;7.00;53.80;;;;;;4995499;28;20030;-78
2021/04/12 06:36:51;;;;;;;;;;;7.10;53.90;;;;;;4985567;28;20030;-82
2021/04/12 06:39:44;;;;;;;3.70;1.65;;;7.20;53.80;;;;;;5019947;28;19909;-76
2021/04/12 06:42:34;;;;;;;3.75;1.70;;;7.30;53.80;;;;;;4990540;28;20037;-77
2021/04/12 06:45:28;;;;;;;2.10;1.83;;;7.40;54.00;;;;;;5021802;28;20029;-76
2021/04/12 06:48:06;;;;;;;3.45;1.80;;;7.40;54.00;;;;;;5021916;28;20136;-77
2021/04/12 06:50:56;;;;;;;1.70;1.60;;;7.50;54.00;;;;;;4988564;28;20038;-81
2021/04/12 06:53:43;;;;;;;1.83;1.58;;;7.60;54.20;;;;;;5026284;28;20025;-77
2021/04/12 06:56:33;;;;;;;2.00;1.77;;;7.80;54.60;;;;;;5009555;28;20033;-78
2021/04/12 06:59:30;;;;;;;2.33;1.67;;;7.90;54.50;;;;;;5025646;28;20128;-77
2021/04/12 07:02:44;;;;;;;2.05;1.67;;;8.10;54.90;;;;;;5008556;28;20069;-79
2021/04/12 07:05:41;;;;;;;3.40;1.85;;;8.20;54.90;;;;;;5004823;28;20092;-81
2021/04/12 07:08:29;;;;;;;3.95;1.98;;;8.40;55.20;;;;;;5019855;28;20049;-82
2021/04/12 07:11:22;;;;;;;1.90;1.67;;;8.50;55.20;;;;;;5025609;28;20042;-83
2021/04/12 07:14:16;;;;;;;1.48;1.38;;;8.70;55.50;;;;;;5025120;28;20033;-79
2021/04/12 07:16:58;;;;;;;3.53;1.88;;;8.80;55.60;;;;;;5012304;28;20076;-78
2021/04/12 07:19:45;;;;;;;2.05;1.45;;;9.00;55.80;;;;;;5030666;28;20041;-77
2021/04/12 07:22:23;;;;;;;3.55;1.58;;;9.20;55.90;;;;;;5009374;28;20018;-82
2021/04/12 07:24:52;;;;;;;1.98;1.38;;;9.40;56.00;;;;;;5012379;28;20088;-79
2021/04/12 07:27:55;;;;;;;2.50;1.60;;;9.60;56.10;;;;;;4996505;28;20060;-82
2021/04/12 07:30:36;;;;;;;1.67;1.50;;;9.80;56.10;;;;;;5013268;28;20539;-81
2021/04/12 07:33:44;;;;;;;2.70;1.50;;;9.90;55.90;;;;;;5016306;28;20037;-83
2021/04/12 07:36:43;;;;;;;2.42;1.73;;;10.00;55.70;;;;;;5018258;28;20051;-79
2021/04/12 07:39:51;;;;;;;2.30;1.30;;;10.10;55.60;;;;;;5013127;28;20029;-80
2021/04/12 07:42:32;;;;;;;1.95;1.80;;;10.20;55.60;;;;;;5002047;28;20026;-80
2021/04/12 07:45:36;;;;;;;2.35;1.90;;;10.20;55.40;;;;;;5011703;28;20476;-81
2021/04/12 07:48:20;;;;;;;2.90;1.58;;;10.30;55.50;;;;;;5010988;28;20041;-79
2021/04/12 07:50:58;;;;;;;3.03;1.80;;;10.30;55.40;;;;;;5012464;28;20522;-83
2021/04/12 07:53:59;;;;;;;1.70;1.60;;;10.30;55.30;;;;;;5019647;28;20508;-82
2021/04/12 07:57:04;;;;;;;4.70;1.90;;;10.30;55.30;;;;;;5013481;28;20041;-81
2021/04/12 08:00:08;;;;;;;1.60;1.50;;;10.30;55.30;;;;;;5011255;28;20026;-80
2021/04/12 08:02:56;;;;;;;2.47;2.00;;;10.20;55.10;;;;;;5011483;28;20095;-84
2021/04/12 08:06:00;;;;;;;1.77;1.65;;;10.30;55.20;;;;;;5011866;28;20275;-81
2021/04/12 08:08:44;;;;;;;2.00;1.65;;;10.30;55.20;;;;;;4996445;28;20065;-77
2021/04/12 08:11:29;;;;;;;1.83;1.52;;;10.40;55.30;;;;;;5006942;28;20053;-77
2021/04/12 08:14:21;;;;;;;;;;;10.40;55.20;;;;;;5024241;28;20053;-77
2021/04/12 08:17:07;;;;;;;2.17;1.60;;;10.40;55.20;;;;;;5027310;28;20245;-76
2021/04/12 08:20:18;;;;;;;2.83;1.63;;;10.50;55.20;;;;;;5024027;28;20033;-77
2021/04/12 08:23:18;;;;;;;1.38;1.27;;;10.60;55.20;;;;;;5009430;28;20094;-81
2021/04/12 08:26:23;;;;;;;1.77;1.48;;;10.70;55.30;;;;;;5016210;28;20136;-79
2021/04/12 08:29:27;;;;;;;2.05;1.75;;;10.80;55.30;;;;;;5015376;28;20068;-79
2021/04/12 08:32:19;;;;;;;2.23;1.67;;;10.90;55.30;;;;;;4975340;28;20038;-80
2021/04/12 08:35:07;;;;;;;1.88;1.50;;;11.00;55.30;;;;;;5010587;28;20052;-81
2021/04/12 08:37:45;;;;;;;3.42;1.67;;;11.10;55.30;;;;;;5011269;28;20538;-80
2021/04/12 08:41:04;;;;;;;2.00;1.42;;;11.20;55.40;;;;;;4993930;28;20191;-78
2021/04/12 08:44:11;;;;;;;3.65;1.65;;;11.30;55.30;;;;;;4969081;28;20062;-79
2021/04/12 08:47:08;;;;;;;2.20;1.42;;;11.40;55.30;;;;;;5007156;28;20053;-79
2021/04/12 08:49:45;;;;;;;1.55;1.45;;;11.40;55.10;;;;;;5010958;28;20037;-79
2021/04/12 08:52:29;;;;;;;1.55;1.45;;;11.50;55.20;;;;;;4993583;28;20124;-78
2021/04/12 08:55:17;;;;;;;3.13;1.60;;;11.60;55.20;;;;;;5013601;28;20407;-78
2021/04/12 08:58:20;;;;;;;2.28;1.85;;;11.60;55.10;;;;;;4999864;28;20456;-78
2021/04/12 09:01:05;;;;;;;1.83;1.63;;;11.70;55.20;;;;;;5027183;28;20038;-77
2021/04/12 09:04:05;;;;;;;1.70;1.60;;;11.90;55.50;;;;;;5012812;28;20496;-79
2021/04/12 09:07:07;;;;;;;1.60;1.50;;;12.00;55.40;;;;;;5029203;28;20033;-77
2021/04/12 09:10:05;;;;;;;3.13;1.48;;;12.10;55.40;;;;;;5014119;28;20097;-82
2021/04/12 09:13:09;;;;;;;4.18;1.70;;;12.30;55.60;;;;;;5033665;28;20041;-80
2021/04/12 09:15:50;;;;;;;1.90;1.40;;;12.50;55.70;;;;;;4995133;28;20026;-78
2021/04/12 09:18:40;;;;;;;1.42;1.30;;;12.70;55.80;;;;;;5008903;28;20033;-78
2021/04/12 09:21:37;;;;;;;4.43;1.60;;;12.80;55.70;;;;;;5017219;28;20576;-82
2021/04/12 09:24:13;;;;;;;3.95;1.20;;;13.00;55.60;;;;;;5010359;28;20030;-79
2021/04/12 09:27:05;;;;;;;1.58;1.42;;;13.10;55.60;;;;;;5026877;28;20099;-80
2021/04/12 09:29:52;;;;;;;1.50;1.40;;;13.20;55.50;;;;;;5003740;28;20038;-78
2021/04/12 09:32:51;;;;;;;1.63;1.52;;;13.30;55.50;;;;;;5008119;28;20022;-79
2021/04/12 09:35:23;;;;;;;2.13;1.60;;;13.30;55.30;;;;;;5008323;28;20030;-79
2021/04/12 09:38:33;;;;;;;1.65;1.55;;;13.30;55.30;;;;;;5009447;28;20033;-78
2021/04/12 09:41:31;;;;;;;1.50;1.40;;;13.40;55.30;;;;;;5009450;28;20340;-78
2021/04/12 09:44:00;;;;;;;4.03;1.70;;;13.50;55.30;;;;;;5009351;28;20025;-78
2021/04/12 09:46:54;;;;;;;1.63;1.52;;;13.60;55.40;;;;;;5009610;28;20091;-78
2021/04/12 09:49:45;;;;;;;1.85;1.50;;;13.60;55.20;;;;;;5020096;28;20140;-82
2021/04/12 09:52:41;;;;;;;2.17;1.40;;;13.70;55.30;;;;;;5026289;28;20519;-80
2021/04/12 09:55:48;;;;;;;1.60;1.50;;;13.80;55.20;;;;;;5009329;28;20037;-80
2021/04/12 09:58:36;;;;;;;1.75;1.40;;;13.90;55.20;;;;;;5010358;28;20029;-82
2021/04/12 10:01:05;;;;;;;1.60;1.50;;;14.00;55.20;;;;;;5011059;28;20036;-81
2021/04/12 10:03:47;;;;;;;1.70;1.60;;;14.10;55.20;;;;;;5026384;28;20088;-81
2021/04/12 10:06:32;;;;;;;1.95;1.67;;;14.20;55.10;;;;;;5010695;28;20094;-79
2021/04/12 10:09:28;;;;;;;1.45;1.30;;;14.30;55.10;;;;;;5026677;28;20103;-81
2021/04/12 10:12:37;;;;;;;1.30;1.20;;;14.40;55.10;;;;;;5024751;28;20049;-77
2021/04/12 10:15:23;;;;;;;1.30;1.20;;;14.50;55.00;;;;;;4989623;28;20030;-78
2021/04/12 10:18:14;;;;;;;1.60;1.50;;;14.60;55.00;;;;;;4970509;28;20121;-78
2021/04/12 10:20:49;;;;;;;1.40;1.30;;;14.70;54.90;;;;;;4992383;28;20485;-80
2021/04/12 10:23:24;;;;;;;2.60;1.50;;;14.80;54.90;;;;;;5008581;28;20037;-80
2021/04/12 10:25:57;;;;;;;1.70;1.40;;;14.90;54.90;;;;;;4991611;28;20401;-80
2021/04/12 10:28:40;;;;;;;1.83;1.50;;;15.00;54.80;;;;;;5024706;28;20551;-81
2021/04/12 10:31:34;;;;;;;1.63;1.35;;;15.10;54.80;;;;;;5009182;28;20021;-81
2021/04/12 10:34:21;;;;;;;1.42;1.33;;;15.20;54.80;;;;;;5009493;28;20041;-77
2021/04/12 10:37:19;;;;;;;3.08;1.50;;;15.30;54.80;;;;;;5009366;28;20040;-79
2021/04/12 10:40:09;;;;;;;3.80;1.60;;;15.40;54.70;;;;;;5039709;28;20075;-78
2021/04/12 10:42:38;;;;;;;1.50;1.40;;;15.50;54.60;;;;;;5026003;28;20571;-80
2021/04/12 10:45:12;;;;;;;2.03;1.48;;;15.60;54.70;;;;;;5009332;28;20034;-80
2021/04/12 10:47:52;;;;;;;1.40;1.27;;;15.70;54.60;;;;;;5026891;28;20053;-77
2021/04/12 10:50:40;;;;;;;1.92;1.58;;;15.70;54.50;;;;;;5009522;28;20144;-80
2021/04/12 10:53:42;;;;;;;2.17;1.50;;;15.80;54.50;;;;;;5009236;28;20129;-78
2021/04/12 10:56:20;;;;;;;2.05;1.83;;;15.90;54.60;;;;;;5009537;28;20030;-82
2021/04/12 10:58:58;;;;;;;1.50;1.40;;;16.10;54.70;;;;;;4992495;28;20029;-82
2021/04/12 11:01:39;;;;;;;1.50;1.40;;;16.10;54.40;;;;;;5008387;28;20033;-80
2021/04/12 11:04:47;;;;;;;1.48;1.38;;;16.20;54.20;;;;;;5025690;28;20132;-83
2021/04/12 11:07:41;;;;;;;1.30;1.20;;;16.20;54.10;;;;;;5009417;28;20344;-84
2021/04/12 11:10:30;;;;;;;1.73;1.60;;;16.20;54.20;;;;;;4973793;28;20481;-79
2021/04/12 11:13:05;;;;;;;3.40;1.30;;;16.10;54.00;;;;;;5007934;28;20051;-77
2021/04/12 11:15:55;;;;;;;1.52;1.25;;;16.10;53.90;;;;;;5024842;28;20144;-81
2021/04/12 11:18:38;;;;;;;2.67;1.50;;;16.00;53.60;;;;;;5004185;28;20119;-78
2021/04/12 11:21:32;;;;;;;1.73;1.33;;;16.10;53.80;;;;;;5008907;28;20036;-80
2021/04/12 11:24:26;;;;;;;1.25;1.00;;;16.10;53.60;;;;;;5009026;28;20409;-81
2021/04/12 11:27:26;;;;;;;4.13;1.50;;;16.10;53.50;;;;;;5009980;28;20384;-83
2021/04/12 11:30:14;;;;;;;6.50;1.50;;;16.20;53.70;;;;;;5008267;28;20116;-80
2021/04/12 11:33:13;;;;;;;1.20;1.10;;;16.40;54.00;;;;;;5026698;28;20477;-80
2021/04/12 11:35:55;;;;;;;1.48;1.30;;;16.50;54.00;;;;;;5025175;28;20037;-80
2021/04/12 11:38:26;;;;;;;2.75;1.17;;;16.70;54.10;;;;;;5009136;28;20029;-78
2021/04/12 11:41:14;;;;;;;4.75;1.27;;;16.80;54.00;;;;;;5024311;28;20072;-77
2021/04/12 11:43:45;;;;;;;1.83;1.20;;;16.80;53.70;;;;;;4991653;28;20088;-81
2021/04/12 11:46:26;;;;;;;2.67;1.60;;;16.90;53.80;;;;;;5009218;28;20033;-82
2021/04/12 11:49:06;;;;;;;2.58;1.40;;;16.90;54.30;;;;;;4992038;28;20041;-80
2021/04/12 11:51:57;;;;;;;1.48;1.20;;;16.90;53.50;;;;;;5008250;28;20034;-80
2021/04/12 11:54:43;;;;;;;3.78;1.60;;;16.90;53.40;;;;;;4992690;28;20034;-79
2021/04/12 11:57:46;;;;;;;1.20;1.10;;;16.90;53.50;;;;;;5009660;28;20037;-80
2021/04/12 12:00:39;;;;;;;1.33;1.10;;;16.90;53.50;;;;;;5027468;28;20435;-83
2021/04/12 12:03:13;;;;;;;1.30;1.20;;;17.00;53.60;;;;;;5009547;28;20065;-82
2021/04/12 12:06:02;;;;;;;1.38;1.00;;;17.10;53.70;;;;;;5029246;28;20033;-82
2021/04/12 12:08:43;;;;;;;1.23;1.13;;;17.20;53.60;;;;;;5013897;28;20126;-83
2021/04/12 12:11:36;;;;;;;2.08;1.25;;;17.30;53.50;;;;;;5003363;28;20252;-81
2021/04/12 12:14:21;;;;;;;1.20;1.10;;;17.40;53.60;;;;;;5002379;28;20038;-80
2021/04/12 12:16:48;;;;;;;1.20;1.10;;;17.40;53.50;;;;;;4991511;28;20029;-79
2021/04/12 12:19:39;;;;;;;1.60;1.27;;;17.40;53.50;;;;;;4996165;28;20029;-79
2021/04/12 12:22:26;;;;;;;1.98;1.40;;;17.40;53.30;;;;;;5028011;28;20037;-78
2021/04/12 12:25:25;;;;;;;1.42;1.15;;;17.40;53.40;;;;;;5011113;28;20038;-82
2021/04/12 12:28:12;;;;;;;1.23;1.13;;;17.30;53.20;;;;;;5011768;28;20523;-79
2021/04/12 12:31:33;;;;;;;2.53;1.35;;;17.20;53.00;;;;;;5029224;28;20030;-80
2021/04/12 12:34:19;;;;;;;1.38;1.27;;;17.20;53.00;;;;;;5011438;28;20036;-80
2021/04/12 12:37:19;;;;;;;3.67;1.30;;;17.20;53.10;;;;;;5029226;28;20045;-80
2021/04/12 12:39:49;;;;;;;1.10;1.10;;;17.20;53.00;;;;;;5029402;28;20029;-80
2021/04/12 12:42:28;;;;;;;1.83;1.25;;;17.20;53.00;;;;;;5011356;28;20030;-78
2021/04/12 12:45:01;;;;;;;1.02;1.00;;;17.20;52.80;;;;;;5010860;28;20503;-79
2021/04/12 12:47:32;;;;;;;1.90;1.15;;;17.20;52.80;;;;;;5009914;28;20049;-77
2021/04/12 12:50:01;;;;;;;1.00;1.00;;;17.20;52.80;;;;;;4994306;28;20021;-80
2021/04/12 12:52:37;;;;;;;0.90;0.90;;;17.30;52.90;;;;;;5010317;28;20041;-80
2021/04/12 12:55:11;;;;;;;2.33;1.23;;;17.30;52.80;;;;;;4994486;28;20078;-78
2021/04/12 12:57:43;;;;;;;1.58;1.10;;;17.40;52.90;;;;;;5026925;28;20385;-78
2021/04/12 13:00:34;;;;;;;1.10;1.10;;;17.40;52.80;;;;;;5028034;28;20022;-78
2021/04/12 13:03:12;;;;;;;0.90;0.90;;;17.60;53.00;;;;;;5009811;28;20064;-79
2021/04/12 13:05:39;;;;;;;2.38;1.02;;;17.60;52.90;;;;;;4993982;28;20040;-79
2021/04/12 13:08:09;;;;;;;1.33;1.17;;;17.70;53.00;;;;;;4993187;28;20132;-79
2021/04/12 13:10:39;;;;;;;0.90;0.90;;;17.80;52.90;;;;;;4993852;28;20047;-80
2021/04/12 13:13:35;;;;;;;1.30;1.10;;;17.80;52.80;;;;;;5008834;28;20033;-79
2021/04/12 13:16:12;;;;;;;0.90;0.88;;;17.80;52.60;;;;;;4992095;28;20135;-79
2021/04/12 13:18:40;;;;;;;1.40;1.02;;;17.90;52.70;;;;;;5027982;28;20029;-78
2021/04/12 13:21:19;;;;;;;1.08;1.00;;;17.90;52.80;;;;;;5025860;28;20056;-78
2021/04/12 13:23:44;;;;;;;1.15;1.05;;;17.90;52.70;;;;;;5026954;28;20083;-81
2021/04/12 13:26:39;;;;;;;1.08;0.98;;;17.90;52.70;;;;;;5009915;28;20095;-78
2021/04/12 13:29:13;;;;;;;1.08;0.98;;;17.90;52.60;;;;;;5025982;28;20048;-79
2021/04/12 13:31:50;;;;;;;0.90;0.90;;;17.90;52.60;;;;;;5008626;28;20040;-78
2021/04/12 13:34:18;;;;;;;0.90;0.90;;;17.80;52.40;;;;;;5025161;28;20638;-80
2021/04/12 13:37:03;;;;;;;1.17;1.00;;;17.80;52.30;;;;;;5026151;28;20523;-79
2021/04/12 13:39:42;;;;;;;2.28;1.10;;;17.80;52.30;;;;;;5025707;28;20394;-78
2021/04/12 13:42:17;;;;;;;1.20;1.10;;;17.90;52.40;;;;;;4991518;28;20556;-79
2021/04/12 13:44:56;;;;;;;1.10;1.00;;;18.00;52.50;;;;;;4989133;28;20061;-79
2021/04/12 13:47:46;;;;;;;1.38;0.90;;;18.10;52.60;;;;;;4989242;28;20063;-79
2021/04/12 13:50:18;;;;;;;1.20;1.02;;;18.20;52.60;;;;;;4971882;28;20385;-79
2021/04/12 13:53:01;;;;;;;0.95;0.95;;;18.30;52.60;;;;;;5004695;28;20056;-78
2021/04/12 13:55:32;;;;;;;1.05;1.02;;;18.40;52.60;;;;;;4989114;28;20034;-78
2021/04/12 13:58:09;;;;;;;1.88;1.20;;;18.40;52.60;;;;;;4974660;28;20076;-79
2021/04/12 14:01:03;;;;;;;1.08;0.90;;;18.40;52.50;;;;;;5009392;28;20034;-80
2021/04/12 14:03:31;;;;;;;;;;;18.50;52.60;;;;;;5009726;28;20040;-80
2021/04/12 14:06:03;;;;;;;1.30;1.08;;;18.60;52.90;;;;;;4993008;28;19913;-79
2021/04/12 14:08:52;;;;;;;1.13;1.10;;;18.60;52.70;;;;;;5005357;28;20042;-80
2021/04/12 14:11:35;;;;;;;1.27;1.05;;;18.60;52.60;;;;;;4971101;28;20105;-78
2021/04/12 14:14:15;;;;;;;1.25;1.15;;;18.70;52.70;;;;;;4962346;28;20030;-79
2021/04/12 14:16:42;;;;;;;1.40;1.10;;;18.70;52.60;;;;;;4970126;28;20138;-80
2021/04/12 14:19:14;;;;;;;1.48;1.20;;;18.80;52.80;;;;;;4982874;28;20027;-79
2021/04/12 14:21:46;;;;;;;1.38;1.27;;;18.80;52.60;;;;;;4989780;28;20044;-79
2021/04/12 14:24:25;;;;;;;1.65;1.00;;;18.90;52.60;;;;;;4989144;28;20489;-80
2021/04/12 14:27:00;;;;;;;0.75;0.75;;;19.00;52.70;;;;;;4989415;28;20034;-80
2021/04/12 14:29:44;;;;;;;1.35;1.10;;;19.00;52.60;;;;;;4982915;28;20381;-79
2021/04/12 14:32:15;;;;;;;0.93;0.93;;;19.00;52.40;;;;;;4988778;28;20034;-80
2021/04/12 14:34:43;;;;;;;1.25;0.90;;;19.10;52.60;;;;;;4972720;28;20378;-81
2021/04/12 14:37:21;;;;;;;1.05;0.95;;;19.10;52.50;;;;;;4988715;28;20064;-82
2021/04/12 14:39:48;;;;;;;1.38;1.25;;;19.20;52.50;;;;;;4989645;28;20036;-80